Main page
METAR-TAF:

METAR-TAF

Airports :

Sacramento Executive Airport

Sacramento, California, United States

latitude: 38-30-25N, longitude: 121-29-42W, elevation: 20 ft

Current weather observation

The report was made 55 minutes ago, at 00:53 UTC
Wind 13 mph from the Southwest with gusts up to 21 mph
Temperature 81°F
Humidity 37%
Pressure 29.94 in. Hg
Visibility: 10 miles
Clear sky

METAR: KSAC 290053Z 22011G18KT 10SM CLR 27/11 A2994 RMK AO2 SLP137 T02670106

Time: 18:48 (01:48 UTC)

Forecast

The report was made 2 hours and 12 minutes ago, at 23:36 UTC
Forecast valid from 29 at 00 UTC to 29 at 24 UTC
Wind 13 mph from the Southwest with gusts up to 18 mph
Visibility: 6 miles
Clear sky
From 29 at 1400 UTC
Wind 12 mph from the North/Northwest
Visibility: 6 miles
Few clouds at a height of 25000 ft
From 29 at 1800 UTC
Wind 15 mph from the North/Northwest with gusts up to 22 mph
Visibility: 6 miles
Clear sky

TAF: KSAC 282336Z 2900/2924 22011G16KT P6SM SKC FM291400 34010KT P6SM FEW250 FM291800 33013G19KT P6SM SKC

Weather observations and forecasts of more than 4000 airports (METAR and TAF reports).

The available stations are represented by yellow and red dots on the map.

Hover mouse over dot to see the name of the station.

Then click to see weather observations and forecasts.

To change the map : click on the green buttons with a black cross to zoom in, on the green button with a dash to zoom out, or on the green arrows for adjacent maps.


METAR-TAF: